sensor_id;sensor_type;location;lat;lon;timestamp;P1;durP1;ratioP1;P2;durP2;ratioP2
11078;SDS011;5592;49.234;7.268;2024-01-27T00:01:37;18.43;;;8.30;;
11078;SDS011;5592;49.234;7.268;2024-01-27T00:04:04;26.40;;;8.80;;
11078;SDS011;5592;49.234;7.268;2024-01-27T00:06:29;9.87;;;6.77;;
11078;SDS011;5592;49.234;7.268;2024-01-27T00:08:55;10.77;;;6.67;;
11078;SDS011;5592;49.234;7.268;2024-01-27T00:11:20;16.23;;;7.70;;
11078;SDS011;5592;49.234;7.268;2024-01-27T00:13:48;16.00;;;8.40;;
11078;SDS011;5592;49.234;7.268;2024-01-27T00:16:14;18.13;;;7.47;;
11078;SDS011;5592;49.234;7.268;2024-01-27T00:18:39;12.27;;;7.10;;
11078;SDS011;5592;49.234;7.268;2024-01-27T00:21:05;13.80;;;7.30;;
11078;SDS011;5592;49.234;7.268;2024-01-27T00:23:31;14.13;;;6.80;;
11078;SDS011;5592;49.234;7.268;2024-01-27T00:25:58;17.10;;;7.57;;
11078;SDS011;5592;49.234;7.268;2024-01-27T00:28:23;20.60;;;7.40;;
11078;SDS011;5592;49.234;7.268;2024-01-27T00:30:49;23.00;;;7.27;;
11078;SDS011;5592;49.234;7.268;2024-01-27T00:33:14;16.40;;;7.43;;
11078;SDS011;5592;49.234;7.268;2024-01-27T00:35:41;15.87;;;6.63;;
11078;SDS011;5592;49.234;7.268;2024-01-27T00:38:06;14.80;;;7.57;;
11078;SDS011;5592;49.234;7.268;2024-01-27T00:40:32;13.30;;;8.00;;
11078;SDS011;5592;49.234;7.268;2024-01-27T00:42:57;13.13;;;6.17;;
11078;SDS011;5592;49.234;7.268;2024-01-27T00:45:23;17.33;;;7.50;;
11078;SDS011;5592;49.234;7.268;2024-01-27T00:47:49;11.30;;;6.90;;
11078;SDS011;5592;49.234;7.268;2024-01-27T00:50:15;14.23;;;6.87;;
11078;SDS011;5592;49.234;7.268;2024-01-27T00:52:41;17.13;;;6.67;;
11078;SDS011;5592;49.234;7.268;2024-01-27T00:55:07;19.77;;;6.87;;
11078;SDS011;5592;49.234;7.268;2024-01-27T00:57:32;12.30;;;7.33;;
11078;SDS011;5592;49.234;7.268;2024-01-27T00:59:58;15.53;;;7.70;;
11078;SDS011;5592;49.234;7.268;2024-01-27T01:02:24;16.47;;;7.57;;
11078;SDS011;5592;49.234;7.268;2024-01-27T01:04:49;12.30;;;7.47;;
11078;SDS011;5592;49.234;7.268;2024-01-27T01:07:15;11.03;;;5.57;;
11078;SDS011;5592;49.234;7.268;2024-01-27T01:09:40;14.40;;;7.13;;
11078;SDS011;5592;49.234;7.268;2024-01-27T01:12:06;13.63;;;7.03;;
11078;SDS011;5592;49.234;7.268;2024-01-27T01:14:32;16.13;;;7.77;;
11078;SDS011;5592;49.234;7.268;2024-01-27T01:16:57;16.20;;;6.87;;
11078;SDS011;5592;49.234;7.268;2024-01-27T01:19:23;22.93;;;7.80;;
11078;SDS011;5592;49.234;7.268;2024-01-27T01:21:48;11.13;;;7.27;;
11078;SDS011;5592;49.234;7.268;2024-01-27T01:24:14;13.20;;;6.33;;
11078;SDS011;5592;49.234;7.268;2024-01-27T01:26:40;11.67;;;6.67;;
11078;SDS011;5592;49.234;7.268;2024-01-27T01:29:05;14.13;;;7.80;;
11078;SDS011;5592;49.234;7.268;2024-01-27T01:31:31;20.83;;;8.53;;
11078;SDS011;5592;49.234;7.268;2024-01-27T01:33:56;18.00;;;8.33;;
11078;SDS011;5592;49.234;7.268;2024-01-27T01:36:23;20.93;;;7.47;;
11078;SDS011;5592;49.234;7.268;2024-01-27T01:38:48;16.90;;;8.17;;
11078;SDS011;5592;49.234;7.268;2024-01-27T01:41:14;32.93;;;9.93;;
11078;SDS011;5592;49.234;7.268;2024-01-27T01:43:39;36.13;;;9.50;;
11078;SDS011;5592;49.234;7.268;2024-01-27T01:46:05;19.30;;;9.30;;
11078;SDS011;5592;49.234;7.268;2024-01-27T01:48:30;17.47;;;8.10;;
11078;SDS011;5592;49.234;7.268;2024-01-27T01:50:56;12.43;;;6.90;;
11078;SDS011;5592;49.234;7.268;2024-01-27T01:53:24;19.97;;;7.20;;
11078;SDS011;5592;49.234;7.268;2024-01-27T01:55:50;16.43;;;7.50;;
11078;SDS011;5592;49.234;7.268;2024-01-27T01:58:17;15.23;;;7.83;;
11078;SDS011;5592;49.234;7.268;2024-01-27T02:00:43;18.33;;;6.97;;
11078;SDS011;5592;49.234;7.268;2024-01-27T02:03:12;13.60;;;7.10;;
11078;SDS011;5592;49.234;7.268;2024-01-27T02:05:38;21.90;;;7.20;;
11078;SDS011;5592;49.234;7.268;2024-01-27T02:08:05;17.20;;;7.97;;
11078;SDS011;5592;49.234;7.268;2024-01-27T02:10:31;21.67;;;9.00;;
11078;SDS011;5592;49.234;7.268;2024-01-27T02:13:03;13.73;;;7.90;;
11078;SDS011;5592;49.234;7.268;2024-01-27T02:15:30;16.30;;;8.37;;
11078;SDS011;5592;49.234;7.268;2024-01-27T02:17:56;16.90;;;8.47;;
11078;SDS011;5592;49.234;7.268;2024-01-27T02:20:22;23.73;;;8.83;;
11078;SDS011;5592;49.234;7.268;2024-01-27T02:22:47;13.97;;;7.20;;
11078;SDS011;5592;49.234;7.268;2024-01-27T02:25:13;20.40;;;8.30;;
11078;SDS011;5592;49.234;7.268;2024-01-27T02:27:38;24.17;;;8.03;;
11078;SDS011;5592;49.234;7.268;2024-01-27T02:30:04;14.97;;;7.57;;
11078;SDS011;5592;49.234;7.268;2024-01-27T02:32:30;16.20;;;7.73;;
11078;SDS011;5592;49.234;7.268;2024-01-27T02:34:56;14.73;;;7.30;;
11078;SDS011;5592;49.234;7.268;2024-01-27T02:37:21;19.03;;;7.53;;
11078;SDS011;5592;49.234;7.268;2024-01-27T02:39:47;18.77;;;8.03;;
11078;SDS011;5592;49.234;7.268;2024-01-27T02:42:12;21.17;;;8.43;;
11078;SDS011;5592;49.234;7.268;2024-01-27T02:44:38;20.93;;;8.37;;
11078;SDS011;5592;49.234;7.268;2024-01-27T02:47:03;33.77;;;10.37;;
11078;SDS011;5592;49.234;7.268;2024-01-27T02:49:29;43.87;;;9.47;;
11078;SDS011;5592;49.234;7.268;2024-01-27T02:51:54;17.67;;;7.40;;
11078;SDS011;5592;49.234;7.268;2024-01-27T02:54:20;21.57;;;8.70;;
11078;SDS011;5592;49.234;7.268;2024-01-27T02:56:45;19.53;;;8.37;;
11078;SDS011;5592;49.234;7.268;2024-01-27T02:59:11;16.33;;;7.07;;
11078;SDS011;5592;49.234;7.268;2024-01-27T03:01:38;12.63;;;6.63;;
11078;SDS011;5592;49.234;7.268;2024-01-27T03:04:04;16.13;;;7.33;;
11078;SDS011;5592;49.234;7.268;2024-01-27T03:06:29;14.07;;;8.20;;
11078;SDS011;5592;49.234;7.268;2024-01-27T03:08:55;12.90;;;6.17;;
11078;SDS011;5592;49.234;7.268;2024-01-27T03:11:20;15.50;;;6.87;;
11078;SDS011;5592;49.234;7.268;2024-01-27T03:13:46;16.97;;;5.80;;
11078;SDS011;5592;49.234;7.268;2024-01-27T03:16:12;15.03;;;6.70;;
11078;SDS011;5592;49.234;7.268;2024-01-27T03:18:38;12.13;;;6.07;;
11078;SDS011;5592;49.234;7.268;2024-01-27T03:21:05;16.33;;;6.50;;
11078;SDS011;5592;49.234;7.268;2024-01-27T03:23:32;21.10;;;7.80;;
11078;SDS011;5592;49.234;7.268;2024-01-27T03:25:57;16.67;;;7.63;;
11078;SDS011;5592;49.234;7.268;2024-01-27T03:28:23;14.60;;;6.93;;
11078;SDS011;5592;49.234;7.268;2024-01-27T03:30:48;22.23;;;6.77;;
11078;SDS011;5592;49.234;7.268;2024-01-27T03:33:14;18.07;;;6.67;;
11078;SDS011;5592;49.234;7.268;2024-01-27T03:35:39;18.30;;;6.93;;
11078;SDS011;5592;49.234;7.268;2024-01-27T03:38:05;14.43;;;7.50;;
11078;SDS011;5592;49.234;7.268;2024-01-27T03:40:31;19.93;;;6.97;;
11078;SDS011;5592;49.234;7.268;2024-01-27T03:42:56;18.20;;;7.00;;
11078;SDS011;5592;49.234;7.268;2024-01-27T03:45:22;24.80;;;7.67;;
11078;SDS011;5592;49.234;7.268;2024-01-27T03:47:48;14.73;;;6.30;;
11078;SDS011;5592;49.234;7.268;2024-01-27T03:50:13;20.87;;;6.83;;
11078;SDS011;5592;49.234;7.268;2024-01-27T03:52:39;15.33;;;5.93;;
11078;SDS011;5592;49.234;7.268;2024-01-27T03:55:06;14.10;;;7.07;;
11078;SDS011;5592;49.234;7.268;2024-01-27T03:57:31;14.30;;;5.80;;
11078;SDS011;5592;49.234;7.268;2024-01-27T03:59:57;9.30;;;5.53;;
11078;SDS011;5592;49.234;7.268;2024-01-27T04:02:22;15.67;;;6.77;;
11078;SDS011;5592;49.234;7.268;2024-01-27T04:04:48;24.43;;;6.63;;
11078;SDS011;5592;49.234;7.268;2024-01-27T04:07:13;15.47;;;6.73;;
11078;SDS011;5592;49.234;7.268;2024-01-27T04:09:39;15.53;;;6.67;;
11078;SDS011;5592;49.234;7.268;2024-01-27T04:12:05;14.90;;;5.80;;
11078;SDS011;5592;49.234;7.268;2024-01-27T04:14:30;16.40;;;7.00;;
11078;SDS011;5592;49.234;7.268;2024-01-27T04:16:56;22.90;;;7.70;;
11078;SDS011;5592;49.234;7.268;2024-01-27T04:19:21;12.63;;;5.90;;
11078;SDS011;5592;49.234;7.268;2024-01-27T04:21:47;38.03;;;8.60;;
11078;SDS011;5592;49.234;7.268;2024-01-27T04:24:12;18.80;;;7.43;;
11078;SDS011;5592;49.234;7.268;2024-01-27T04:26:38;22.87;;;7.37;;
11078;SDS011;5592;49.234;7.268;2024-01-27T04:29:03;48.03;;;8.10;;
11078;SDS011;5592;49.234;7.268;2024-01-27T04:31:29;25.07;;;7.60;;
11078;SDS011;5592;49.234;7.268;2024-01-27T04:33:56;26.43;;;7.30;;
11078;SDS011;5592;49.234;7.268;2024-01-27T04:36:29;13.10;;;6.47;;
11078;SDS011;5592;49.234;7.268;2024-01-27T04:38:54;14.47;;;6.50;;
11078;SDS011;5592;49.234;7.268;2024-01-27T04:41:20;14.20;;;6.90;;
11078;SDS011;5592;49.234;7.268;2024-01-27T04:43:46;10.43;;;5.37;;
11078;SDS011;5592;49.234;7.268;2024-01-27T04:46:12;39.30;;;9.07;;
11078;SDS011;5592;49.234;7.268;2024-01-27T04:48:37;11.50;;;5.77;;
11078;SDS011;5592;49.234;7.268;2024-01-27T04:51:03;25.67;;;6.80;;
11078;SDS011;5592;49.234;7.268;2024-01-27T04:53:28;16.20;;;7.83;;
11078;SDS011;5592;49.234;7.268;2024-01-27T04:55:54;23.33;;;7.70;;
11078;SDS011;5592;49.234;7.268;2024-01-27T04:58:19;12.40;;;6.77;;
11078;SDS011;5592;49.234;7.268;2024-01-27T05:00:45;18.63;;;7.30;;
11078;SDS011;5592;49.234;7.268;2024-01-27T05:03:10;14.83;;;6.67;;
11078;SDS011;5592;49.234;7.268;2024-01-27T05:05:41;32.20;;;7.23;;
11078;SDS011;5592;49.234;7.268;2024-01-27T05:08:07;28.97;;;8.30;;
11078;SDS011;5592;49.234;7.268;2024-01-27T05:10:34;22.57;;;8.27;;
11078;SDS011;5592;49.234;7.268;2024-01-27T05:13:00;13.67;;;6.13;;
11078;SDS011;5592;49.234;7.268;2024-01-27T05:15:25;12.80;;;6.00;;
11078;SDS011;5592;49.234;7.268;2024-01-27T05:17:51;17.37;;;6.90;;
11078;SDS011;5592;49.234;7.268;2024-01-27T05:20:17;49.43;;;7.80;;
11078;SDS011;5592;49.234;7.268;2024-01-27T05:22:44;21.60;;;6.83;;
11078;SDS011;5592;49.234;7.268;2024-01-27T05:25:09;115.70;;;11.10;;
11078;SDS011;5592;49.234;7.268;2024-01-27T05:27:36;62.50;;;7.70;;
11078;SDS011;5592;49.234;7.268;2024-01-27T05:30:03;7.70;;;5.17;;
11078;SDS011;5592;49.234;7.268;2024-01-27T05:32:30;17.90;;;5.27;;
11078;SDS011;5592;49.234;7.268;2024-01-27T05:34:56;16.10;;;5.87;;
11078;SDS011;5592;49.234;7.268;2024-01-27T05:37:21;21.07;;;5.13;;
11078;SDS011;5592;49.234;7.268;2024-01-27T05:39:47;12.20;;;4.13;;
11078;SDS011;5592;49.234;7.268;2024-01-27T05:42:12;25.57;;;5.33;;
11078;SDS011;5592;49.234;7.268;2024-01-27T05:44:38;7.90;;;5.07;;
11078;SDS011;5592;49.234;7.268;2024-01-27T05:47:05;10.87;;;5.23;;
11078;SDS011;5592;49.234;7.268;2024-01-27T05:49:31;45.13;;;6.90;;
11078;SDS011;5592;49.234;7.268;2024-01-27T05:51:57;46.10;;;6.23;;
11078;SDS011;5592;49.234;7.268;2024-01-27T05:54:22;8.20;;;4.67;;
11078;SDS011;5592;49.234;7.268;2024-01-27T05:56:50;59.50;;;8.60;;
11078;SDS011;5592;49.234;7.268;2024-01-27T05:59:15;25.90;;;7.53;;
11078;SDS011;5592;49.234;7.268;2024-01-27T06:01:41;12.57;;;6.20;;
11078;SDS011;5592;49.234;7.268;2024-01-27T06:04:08;12.40;;;6.63;;
11078;SDS011;5592;49.234;7.268;2024-01-27T06:06:34;24.40;;;6.07;;
11078;SDS011;5592;49.234;7.268;2024-01-27T06:09:02;12.93;;;5.70;;
11078;SDS011;5592;49.234;7.268;2024-01-27T06:11:28;11.73;;;5.77;;
11078;SDS011;5592;49.234;7.268;2024-01-27T06:13:54;21.60;;;7.00;;
11078;SDS011;5592;49.234;7.268;2024-01-27T06:16:20;9.00;;;6.17;;
11078;SDS011;5592;49.234;7.268;2024-01-27T06:18:46;42.63;;;8.60;;
11078;SDS011;5592;49.234;7.268;2024-01-27T06:21:11;25.83;;;8.50;;
11078;SDS011;5592;49.234;7.268;2024-01-27T06:23:37;14.43;;;6.23;;
11078;SDS011;5592;49.234;7.268;2024-01-27T06:26:08;79.77;;;9.60;;
11078;SDS011;5592;49.234;7.268;2024-01-27T06:28:35;23.00;;;7.27;;
11078;SDS011;5592;49.234;7.268;2024-01-27T06:31:02;77.37;;;8.80;;
11078;SDS011;5592;49.234;7.268;2024-01-27T06:33:28;28.63;;;7.03;;
11078;SDS011;5592;49.234;7.268;2024-01-27T06:35:54;34.30;;;8.20;;
11078;SDS011;5592;49.234;7.268;2024-01-27T06:38:20;28.93;;;7.27;;
11078;SDS011;5592;49.234;7.268;2024-01-27T06:40:45;11.50;;;6.00;;
11078;SDS011;5592;49.234;7.268;2024-01-27T06:43:12;37.77;;;8.37;;
11078;SDS011;5592;49.234;7.268;2024-01-27T06:45:38;39.77;;;8.27;;
11078;SDS011;5592;49.234;7.268;2024-01-27T06:48:04;14.40;;;6.40;;
11078;SDS011;5592;49.234;7.268;2024-01-27T06:50:30;33.43;;;7.60;;
11078;SDS011;5592;49.234;7.268;2024-01-27T06:52:59;10.37;;;6.37;;
11078;SDS011;5592;49.234;7.268;2024-01-27T06:55:26;14.03;;;5.53;;
11078;SDS011;5592;49.234;7.268;2024-01-27T06:57:52;12.03;;;5.87;;
11078;SDS011;5592;49.234;7.268;2024-01-27T07:00:18;9.07;;;4.70;;
11078;SDS011;5592;49.234;7.268;2024-01-27T07:02:44;12.17;;;5.77;;
11078;SDS011;5592;49.234;7.268;2024-01-27T07:05:10;17.90;;;6.20;;
11078;SDS011;5592;49.234;7.268;2024-01-27T07:07:37;9.73;;;6.30;;
11078;SDS011;5592;49.234;7.268;2024-01-27T07:10:02;42.70;;;8.73;;
11078;SDS011;5592;49.234;7.268;2024-01-27T07:12:28;59.70;;;9.23;;
11078;SDS011;5592;49.234;7.268;2024-01-27T07:14:54;20.90;;;6.67;;
11078;SDS011;5592;49.234;7.268;2024-01-27T07:17:20;10.97;;;6.53;;
11078;SDS011;5592;49.234;7.268;2024-01-27T07:19:45;12.47;;;5.90;;
11078;SDS011;5592;49.234;7.268;2024-01-27T07:22:11;9.30;;;6.13;;
11078;SDS011;5592;49.234;7.268;2024-01-27T07:24:37;13.00;;;7.80;;
11078;SDS011;5592;49.234;7.268;2024-01-27T07:27:04;17.77;;;7.40;;
11078;SDS011;5592;49.234;7.268;2024-01-27T07:29:29;24.10;;;6.50;;
11078;SDS011;5592;49.234;7.268;2024-01-27T07:31:55;16.97;;;6.80;;
11078;SDS011;5592;49.234;7.268;2024-01-27T07:34:21;13.93;;;6.90;;
11078;SDS011;5592;49.234;7.268;2024-01-27T07:36:47;20.27;;;6.73;;
11078;SDS011;5592;49.234;7.268;2024-01-27T07:39:14;16.20;;;7.50;;
11078;SDS011;5592;49.234;7.268;2024-01-27T07:41:39;24.43;;;8.30;;
11078;SDS011;5592;49.234;7.268;2024-01-27T07:44:09;14.13;;;7.27;;
11078;SDS011;5592;49.234;7.268;2024-01-27T07:46:36;13.20;;;8.10;;
11078;SDS011;5592;49.234;7.268;2024-01-27T07:49:06;19.33;;;8.33;;
11078;SDS011;5592;49.234;7.268;2024-01-27T07:51:32;14.43;;;9.30;;
11078;SDS011;5592;49.234;7.268;2024-01-27T07:53:58;32.13;;;9.27;;
11078;SDS011;5592;49.234;7.268;2024-01-27T07:56:24;95.83;;;12.90;;
11078;SDS011;5592;49.234;7.268;2024-01-27T07:58:52;29.47;;;7.70;;
11078;SDS011;5592;49.234;7.268;2024-01-27T08:01:19;16.40;;;7.60;;
11078;SDS011;5592;49.234;7.268;2024-01-27T08:03:45;37.93;;;9.30;;
11078;SDS011;5592;49.234;7.268;2024-01-27T08:06:15;31.07;;;10.43;;
11078;SDS011;5592;49.234;7.268;2024-01-27T08:08:43;69.93;;;13.03;;
11078;SDS011;5592;49.234;7.268;2024-01-27T08:11:17;28.00;;;8.43;;
11078;SDS011;5592;49.234;7.268;2024-01-27T08:13:43;869.80;;;80.20;;
11078;SDS011;5592;49.234;7.268;2024-01-27T08:16:09;1999.90;;;328.37;;
11078;SDS011;5592;49.234;7.268;2024-01-27T08:18:37;1999.90;;;347.93;;
11078;SDS011;5592;49.234;7.268;2024-01-27T08:21:03;1999.90;;;296.67;;
11078;SDS011;5592;49.234;7.268;2024-01-27T08:23:30;948.47;;;76.57;;
11078;SDS011;5592;49.234;7.268;2024-01-27T08:25:55;354.83;;;26.97;;
11078;SDS011;5592;49.234;7.268;2024-01-27T08:28:21;14.77;;;6.83;;
11078;SDS011;5592;49.234;7.268;2024-01-27T08:30:47;11.40;;;6.00;;
11078;SDS011;5592;49.234;7.268;2024-01-27T08:33:12;9.30;;;5.80;;
11078;SDS011;5592;49.234;7.268;2024-01-27T08:35:38;6.00;;;4.87;;
11078;SDS011;5592;49.234;7.268;2024-01-27T08:38:04;7.93;;;5.20;;
11078;SDS011;5592;49.234;7.268;2024-01-27T08:40:31;6.60;;;5.00;;
11078;SDS011;5592;49.234;7.268;2024-01-27T08:42:56;6.83;;;5.03;;
11078;SDS011;5592;49.234;7.268;2024-01-27T08:45:22;11.80;;;7.03;;
11078;SDS011;5592;49.234;7.268;2024-01-27T08:47:48;7.60;;;6.50;;
11078;SDS011;5592;49.234;7.268;2024-01-27T08:50:14;8.53;;;6.00;;
11078;SDS011;5592;49.234;7.268;2024-01-27T08:52:39;11.37;;;6.30;;
11078;SDS011;5592;49.234;7.268;2024-01-27T08:55:05;7.57;;;6.50;;
11078;SDS011;5592;49.234;7.268;2024-01-27T08:57:31;10.13;;;7.27;;
11078;SDS011;5592;49.234;7.268;2024-01-27T08:59:56;14.07;;;7.27;;
11078;SDS011;5592;49.234;7.268;2024-01-27T09:02:22;11.43;;;6.57;;
11078;SDS011;5592;49.234;7.268;2024-01-27T09:04:48;8.87;;;6.60;;
11078;SDS011;5592;49.234;7.268;2024-01-27T09:07:13;8.20;;;6.60;;
11078;SDS011;5592;49.234;7.268;2024-01-27T09:09:39;7.67;;;5.77;;
11078;SDS011;5592;49.234;7.268;2024-01-27T09:12:04;6.17;;;4.30;;
11078;SDS011;5592;49.234;7.268;2024-01-27T09:14:30;6.70;;;4.83;;
11078;SDS011;5592;49.234;7.268;2024-01-27T09:16:56;8.83;;;4.57;;
11078;SDS011;5592;49.234;7.268;2024-01-27T09:19:21;4.80;;;4.30;;
11078;SDS011;5592;49.234;7.268;2024-01-27T09:21:47;8.40;;;4.77;;
11078;SDS011;5592;49.234;7.268;2024-01-27T09:24:12;5.43;;;4.03;;
11078;SDS011;5592;49.234;7.268;2024-01-27T09:26:38;7.97;;;4.33;;
11078;SDS011;5592;49.234;7.268;2024-01-27T09:29:03;8.10;;;4.27;;
11078;SDS011;5592;49.234;7.268;2024-01-27T09:31:29;8.47;;;5.87;;
11078;SDS011;5592;49.234;7.268;2024-01-27T09:33:55;8.53;;;4.43;;
11078;SDS011;5592;49.234;7.268;2024-01-27T09:36:21;5.93;;;4.40;;
11078;SDS011;5592;49.234;7.268;2024-01-27T09:38:47;8.40;;;4.03;;
11078;SDS011;5592;49.234;7.268;2024-01-27T09:41:13;9.23;;;4.13;;
11078;SDS011;5592;49.234;7.268;2024-01-27T09:43:41;4.60;;;3.37;;
11078;SDS011;5592;49.234;7.268;2024-01-27T09:46:09;6.87;;;3.97;;
11078;SDS011;5592;49.234;7.268;2024-01-27T09:48:42;5.40;;;3.70;;
11078;SDS011;5592;49.234;7.268;2024-01-27T09:51:08;8.40;;;4.03;;
11078;SDS011;5592;49.234;7.268;2024-01-27T09:53:41;6.47;;;3.80;;
11078;SDS011;5592;49.234;7.268;2024-01-27T09:56:06;6.50;;;3.40;;
11078;SDS011;5592;49.234;7.268;2024-01-27T09:58:33;11.00;;;4.20;;
11078;SDS011;5592;49.234;7.268;2024-01-27T10:01:01;7.30;;;3.40;;
11078;SDS011;5592;49.234;7.268;2024-01-27T10:03:28;6.03;;;3.87;;
11078;SDS011;5592;49.234;7.268;2024-01-27T10:05:54;7.10;;;3.37;;
11078;SDS011;5592;49.234;7.268;2024-01-27T10:08:21;6.97;;;3.43;;
11078;SDS011;5592;49.234;7.268;2024-01-27T10:10:49;9.83;;;4.33;;
11078;SDS011;5592;49.234;7.268;2024-01-27T10:13:19;3.83;;;2.90;;
11078;SDS011;5592;49.234;7.268;2024-01-27T10:16:01;6.70;;;3.83;;
11078;SDS011;5592;49.234;7.268;2024-01-27T10:18:27;5.83;;;3.70;;
11078;SDS011;5592;49.234;7.268;2024-01-27T10:20:53;4.00;;;3.37;;
11078;SDS011;5592;49.234;7.268;2024-01-27T10:23:19;8.80;;;4.10;;
11078;SDS011;5592;49.234;7.268;2024-01-27T10:25:44;9.17;;;3.70;;
11078;SDS011;5592;49.234;7.268;2024-01-27T10:28:10;9.67;;;4.20;;
11078;SDS011;5592;49.234;7.268;2024-01-27T10:30:36;9.27;;;3.90;;
11078;SDS011;5592;49.234;7.268;2024-01-27T10:33:02;7.07;;;4.30;;
11078;SDS011;5592;49.234;7.268;2024-01-27T10:35:28;11.30;;;4.37;;
11078;SDS011;5592;49.234;7.268;2024-01-27T10:37:54;11.77;;;4.50;;
11078;SDS011;5592;49.234;7.268;2024-01-27T10:40:21;7.53;;;3.77;;
11078;SDS011;5592;49.234;7.268;2024-01-27T10:43:05;9.20;;;4.50;;
11078;SDS011;5592;49.234;7.268;2024-01-27T10:45:39;13.80;;;4.60;;
11078;SDS011;5592;49.234;7.268;2024-01-27T10:48:06;10.70;;;4.17;;
11078;SDS011;5592;49.234;7.268;2024-01-27T10:50:34;10.20;;;5.20;;
11078;SDS011;5592;49.234;7.268;2024-01-27T10:53:02;6.73;;;3.23;;
11078;SDS011;5592;49.234;7.268;2024-01-27T10:55:30;13.70;;;4.17;;
11078;SDS011;5592;49.234;7.268;2024-01-27T10:57:58;10.37;;;4.27;;
11078;SDS011;5592;49.234;7.268;2024-01-27T11:00:27;8.80;;;3.97;;
11078;SDS011;5592;49.234;7.268;2024-01-27T11:02:56;8.93;;;4.23;;
11078;SDS011;5592;49.234;7.268;2024-01-27T11:05:24;6.57;;;3.23;;
11078;SDS011;5592;49.234;7.268;2024-01-27T11:07:49;12.30;;;3.90;;
11078;SDS011;5592;49.234;7.268;2024-01-27T11:10:16;8.90;;;3.43;;
11078;SDS011;5592;49.234;7.268;2024-01-27T11:12:42;10.23;;;3.50;;
11078;SDS011;5592;49.234;7.268;2024-01-27T11:15:09;7.50;;;3.40;;
11078;SDS011;5592;49.234;7.268;2024-01-27T11:17:38;9.10;;;3.70;;
11078;SDS011;5592;49.234;7.268;2024-01-27T11:20:07;7.27;;;3.23;;
11078;SDS011;5592;49.234;7.268;2024-01-27T11:22:33;11.13;;;4.67;;
11078;SDS011;5592;49.234;7.268;2024-01-27T11:25:06;11.50;;;3.90;;
11078;SDS011;5592;49.234;7.268;2024-01-27T11:27:33;12.90;;;3.70;;
11078;SDS011;5592;49.234;7.268;2024-01-27T11:29:59;5.33;;;3.30;;
11078;SDS011;5592;49.234;7.268;2024-01-27T11:32:26;11.83;;;3.70;;
11078;SDS011;5592;49.234;7.268;2024-01-27T11:34:51;10.40;;;3.67;;
11078;SDS011;5592;49.234;7.268;2024-01-27T11:37:17;12.50;;;4.17;;
11078;SDS011;5592;49.234;7.268;2024-01-27T11:39:49;10.57;;;3.53;;
11078;SDS011;5592;49.234;7.268;2024-01-27T11:42:14;8.00;;;3.27;;
11078;SDS011;5592;49.234;7.268;2024-01-27T11:44:41;11.00;;;3.50;;
11078;SDS011;5592;49.234;7.268;2024-01-27T11:47:17;8.57;;;3.30;;
11078;SDS011;5592;49.234;7.268;2024-01-27T11:49:43;9.90;;;3.57;;
11078;SDS011;5592;49.234;7.268;2024-01-27T11:52:17;8.43;;;3.70;;
11078;SDS011;5592;49.234;7.268;2024-01-27T11:54:42;15.37;;;4.50;;
11078;SDS011;5592;49.234;7.268;2024-01-27T11:57:08;6.30;;;3.80;;
11078;SDS011;5592;49.234;7.268;2024-01-27T11:59:34;8.30;;;4.07;;
11078;SDS011;5592;49.234;7.268;2024-01-27T12:02:01;10.43;;;3.50;;
11078;SDS011;5592;49.234;7.268;2024-01-27T12:04:27;10.37;;;3.63;;
11078;SDS011;5592;49.234;7.268;2024-01-27T12:06:53;10.73;;;4.10;;
11078;SDS011;5592;49.234;7.268;2024-01-27T12:09:19;8.00;;;3.80;;
11078;SDS011;5592;49.234;7.268;2024-01-27T12:11:45;12.73;;;4.10;;
11078;SDS011;5592;49.234;7.268;2024-01-27T12:14:11;17.20;;;5.20;;
11078;SDS011;5592;49.234;7.268;2024-01-27T12:16:36;9.00;;;4.13;;
11078;SDS011;5592;49.234;7.268;2024-01-27T12:19:03;10.00;;;4.90;;
11078;SDS011;5592;49.234;7.268;2024-01-27T12:21:28;10.73;;;4.43;;
11078;SDS011;5592;49.234;7.268;2024-01-27T12:23:55;11.50;;;5.60;;
11078;SDS011;5592;49.234;7.268;2024-01-27T12:26:22;13.40;;;5.20;;
11078;SDS011;5592;49.234;7.268;2024-01-27T12:28:49;8.73;;;2.77;;
11078;SDS011;5592;49.234;7.268;2024-01-27T12:31:18;8.57;;;2.63;;
11078;SDS011;5592;49.234;7.268;2024-01-27T12:33:50;16.47;;;5.43;;
11078;SDS011;5592;49.234;7.268;2024-01-27T12:36:18;3.53;;;2.30;;
11078;SDS011;5592;49.234;7.268;2024-01-27T12:38:58;8.20;;;3.07;;
11078;SDS011;5592;49.234;7.268;2024-01-27T12:41:27;4.67;;;2.10;;
11078;SDS011;5592;49.234;7.268;2024-01-27T12:43:54;8.23;;;2.30;;
11078;SDS011;5592;49.234;7.268;2024-01-27T12:46:20;9.63;;;2.77;;
11078;SDS011;5592;49.234;7.268;2024-01-27T12:48:46;9.97;;;3.87;;
11078;SDS011;5592;49.234;7.268;2024-01-27T12:51:12;4.77;;;1.90;;
11078;SDS011;5592;49.234;7.268;2024-01-27T12:53:38;3.77;;;2.07;;
11078;SDS011;5592;49.234;7.268;2024-01-27T12:56:07;4.33;;;2.00;;
11078;SDS011;5592;49.234;7.268;2024-01-27T12:58:33;5.50;;;1.93;;
11078;SDS011;5592;49.234;7.268;2024-01-27T13:00:59;4.37;;;2.17;;
11078;SDS011;5592;49.234;7.268;2024-01-27T13:03:25;6.77;;;2.73;;
11078;SDS011;5592;49.234;7.268;2024-01-27T13:05:51;7.77;;;1.67;;
11078;SDS011;5592;49.234;7.268;2024-01-27T13:08:16;9.23;;;2.20;;
11078;SDS011;5592;49.234;7.268;2024-01-27T13:10:42;5.27;;;1.90;;
11078;SDS011;5592;49.234;7.268;2024-01-27T13:13:07;6.60;;;1.70;;
11078;SDS011;5592;49.234;7.268;2024-01-27T13:15:33;3.90;;;2.00;;
11078;SDS011;5592;49.234;7.268;2024-01-27T13:17:58;4.83;;;2.17;;
11078;SDS011;5592;49.234;7.268;2024-01-27T13:20:24;4.73;;;2.03;;
11078;SDS011;5592;49.234;7.268;2024-01-27T13:22:49;4.70;;;2.10;;
11078;SDS011;5592;49.234;7.268;2024-01-27T13:25:16;10.30;;;2.50;;
11078;SDS011;5592;49.234;7.268;2024-01-27T13:27:41;5.83;;;2.07;;
11078;SDS011;5592;49.234;7.268;2024-01-27T13:30:07;5.27;;;1.70;;
11078;SDS011;5592;49.234;7.268;2024-01-27T13:32:34;5.93;;;2.13;;
11078;SDS011;5592;49.234;7.268;2024-01-27T13:34:59;4.50;;;1.83;;
11078;SDS011;5592;49.234;7.268;2024-01-27T13:37:25;4.40;;;1.97;;
11078;SDS011;5592;49.234;7.268;2024-01-27T13:39:51;4.50;;;1.60;;
11078;SDS011;5592;49.234;7.268;2024-01-27T13:42:16;2.73;;;1.50;;
11078;SDS011;5592;49.234;7.268;2024-01-27T13:44:42;5.63;;;1.60;;
11078;SDS011;5592;49.234;7.268;2024-01-27T13:47:08;2.43;;;1.60;;
11078;SDS011;5592;49.234;7.268;2024-01-27T13:49:34;3.10;;;1.43;;
11078;SDS011;5592;49.234;7.268;2024-01-27T13:52:00;2.30;;;1.00;;
11078;SDS011;5592;49.234;7.268;2024-01-27T13:54:25;5.07;;;1.30;;
11078;SDS011;5592;49.234;7.268;2024-01-27T13:56:51;2.00;;;1.23;;
11078;SDS011;5592;49.234;7.268;2024-01-27T13:59:17;3.50;;;1.17;;
11078;SDS011;5592;49.234;7.268;2024-01-27T14:01:42;4.80;;;1.40;;
11078;SDS011;5592;49.234;7.268;2024-01-27T14:04:10;3.90;;;1.33;;
11078;SDS011;5592;49.234;7.268;2024-01-27T14:06:35;3.17;;;1.40;;
11078;SDS011;5592;49.234;7.268;2024-01-27T14:09:01;5.53;;;1.30;;
11078;SDS011;5592;49.234;7.268;2024-01-27T14:11:29;2.23;;;1.47;;
11078;SDS011;5592;49.234;7.268;2024-01-27T14:13:55;5.03;;;1.37;;
11078;SDS011;5592;49.234;7.268;2024-01-27T14:16:20;4.83;;;1.97;;
11078;SDS011;5592;49.234;7.268;2024-01-27T14:18:47;7.90;;;1.33;;
11078;SDS011;5592;49.234;7.268;2024-01-27T14:21:13;3.00;;;1.27;;
11078;SDS011;5592;49.234;7.268;2024-01-27T14:23:38;3.90;;;1.27;;
11078;SDS011;5592;49.234;7.268;2024-01-27T14:26:04;4.87;;;1.03;;
11078;SDS011;5592;49.234;7.268;2024-01-27T14:28:29;4.87;;;1.80;;
11078;SDS011;5592;49.234;7.268;2024-01-27T14:30:55;7.43;;;1.60;;
11078;SDS011;5592;49.234;7.268;2024-01-27T14:33:20;4.50;;;1.20;;
11078;SDS011;5592;49.234;7.268;2024-01-27T14:35:48;3.93;;;1.17;;
11078;SDS011;5592;49.234;7.268;2024-01-27T14:38:13;1.27;;;1.17;;
11078;SDS011;5592;49.234;7.268;2024-01-27T14:40:40;2.27;;;1.30;;
11078;SDS011;5592;49.234;7.268;2024-01-27T14:43:05;5.00;;;1.80;;
11078;SDS011;5592;49.234;7.268;2024-01-27T14:45:36;5.40;;;2.37;;